Time;durP1;ratioP1;P1;durP2;ratioP2;P2;SDS_P1;SDS_P2;PMS_P1;PMS_P2;Temp;Humidity;BMP_temperature;BMP_pressure;BME280_temperature;BME280_humidity;BME280_pressure;Samples;Min_cycle;Max_cycle;Signal;HPM_P1;HPM_P2
2023/12/07 00:00:57;;;;;;;4.13;2.37;;;-8.50;99.90;;;;;;1945306;73;25986;-88
2023/12/07 00:03:49;;;;;;;5.17;2.50;;;-8.50;99.90;;;;;;1948098;73;25937;-88
2023/12/07 00:06:38;;;;;;;5.63;2.27;;;-8.40;99.90;;;;;;1948468;72;27317;-88
2023/12/07 00:09:30;;;;;;;6.13;2.27;;;-8.40;99.90;;;;;;1943919;73;25911;-88
2023/12/07 00:12:22;;;;;;;3.67;2.30;;;-8.40;99.90;;;;;;1928932;73;25914;-88
2023/12/07 00:15:11;;;;;;;5.03;2.53;;;-8.40;99.90;;;;;;1926397;73;25989;-88
2023/12/07 00:20:55;;;;;;;7.50;2.30;;;-8.50;99.90;;;;;;1956985;72;27602;-89
2023/12/07 00:23:50;;;;;;;4.80;2.37;;;-8.40;99.90;;;;;;1900001;75;25957;-89
2023/12/07 00:26:39;;;;;;;4.90;2.37;;;-8.40;99.90;;;;;;1893668;75;26015;-89
2023/12/07 00:29:28;;;;;;;4.67;2.30;;;-8.30;99.90;;;;;;1954417;72;25909;-89
2023/12/07 00:35:22;;;;;;;5.57;2.43;;;-8.20;99.90;;;;;;1961056;72;27089;-89
2023/12/07 00:38:13;;;;;;;5.33;2.40;;;-8.20;99.90;;;;;;1921086;73;26026;-89
2023/12/07 00:41:03;;;;;;;6.13;2.17;;;-8.20;99.90;;;;;;1942882;73;25911;-89
2023/12/07 00:47:00;;;;;;;3.83;2.17;;;-8.50;99.90;;;;;;1900769;75;26464;-89
2023/12/07 00:52:43;;;;;;;4.40;2.07;;;-8.70;99.90;;;;;;1965170;72;27617;-88
2023/12/07 00:55:31;;;;;;;5.33;2.10;;;-8.70;99.90;;;;;;1953848;73;25902;-88
2023/12/07 00:58:20;;;;;;;3.70;2.30;;;-8.80;99.90;;;;;;1952024;73;25904;-88
2023/12/07 01:01:09;;;;;;;6.93;2.23;;;-8.80;99.90;;;;;;1939614;73;26368;-88
2023/12/07 01:03:58;;;;;;;4.13;2.10;;;-8.70;99.90;;;;;;1934259;73;25936;-87
2023/12/07 01:06:46;;;;;;;4.20;2.17;;;-8.70;99.90;;;;;;1943460;72;25828;-88
2023/12/07 01:18:11;;;;;;;6.57;2.90;;;-8.70;99.90;;;;;;1954385;71;27079;-89
2023/12/07 01:20:59;;;;;;;5.83;2.67;;;-8.50;99.90;;;;;;1850754;75;25961;-88
2023/12/07 01:48:20;;;;;;;4.47;2.53;;;-8.10;99.90;;;;;;1996679;70;25219;-89
2023/12/07 01:51:11;;;;;;;3.73;2.13;;;-8.10;99.90;;;;;;2002250;70;25188;-88
2023/12/07 01:57:15;;;;;;;7.07;2.40;;;-8.10;99.90;;;;;;2082450;68;26760;-88
2023/12/07 02:00:04;;;;;;;3.77;2.37;;;-8.00;99.90;;;;;;2010632;71;25882;-88
2023/12/07 02:19:22;;;;;;;3.17;1.57;;;-7.60;99.90;;;;;;1954450;72;26865;-87
2023/12/07 02:22:19;;;;;;;2.30;1.80;;;-7.70;99.90;;;;;;1938492;73;26005;-89
2023/12/07 02:25:10;;;;;;;5.07;2.50;;;-7.60;99.90;;;;;;1929134;73;25934;-88
2023/12/07 02:28:00;;;;;;;3.37;1.47;;;-7.50;99.90;;;;;;1931531;73;25928;-89
2023/12/07 02:30:49;;;;;;;2.90;2.07;;;-7.50;99.90;;;;;;1945183;73;25875;-88
2023/12/07 02:33:39;;;;;;;3.67;2.03;;;-7.50;99.90;;;;;;1928968;73;25914;-88
2023/12/07 02:36:31;;;;;;;2.57;1.90;;;-7.50;99.90;;;;;;1935739;73;25919;-87
2023/12/07 02:39:20;;;;;;;4.60;2.10;;;-7.50;99.90;;;;;;1935597;73;26359;-88
2023/12/07 03:55:38;;;;;;;2.83;1.93;;;-7.10;99.90;;;;;;1957067;71;27144;-89
2023/12/07 04:12:00;;;;;;;1.50;1.20;;;-7.00;99.90;;;;;;1948008;72;26755;-89
2023/12/07 04:14:49;;;;;;;1.47;1.20;;;-7.00;99.90;;;;;;1921129;73;25975;-89
2023/12/07 04:17:38;;;;;;;1.90;1.20;;;-7.00;99.90;;;;;;1936850;73;25871;-89
2023/12/07 04:20:28;;;;;;;2.07;1.27;;;-7.00;99.90;;;;;;1921010;73;25903;-89
2023/12/07 04:23:17;;;;;;;1.93;1.23;;;-7.00;99.90;;;;;;1932845;73;25169;-89
2023/12/07 04:26:07;;;;;;;1.63;1.23;;;-7.00;99.90;;;;;;1917844;73;26029;-89
2023/12/07 04:28:56;;;;;;;0.93;0.93;;;-7.00;99.90;;;;;;1923584;73;25962;-89
2023/12/07 04:31:45;;;;;;;1.00;0.83;;;-7.00;99.90;;;;;;1925681;73;26692;-89
2023/12/07 04:34:33;;;;;;;2.60;1.57;;;-6.90;99.90;;;;;;1943569;73;25896;-89
2023/12/07 04:37:21;;;;;;;0.70;0.70;;;-6.90;99.90;;;;;;1917824;72;26525;-89
2023/12/07 04:40:15;;;;;;;1.53;1.13;;;-7.00;99.90;;;;;;1932097;73;26399;-89
2023/12/07 04:43:04;;;;;;;1.30;0.90;;;-7.00;99.90;;;;;;1926141;72;25907;-89
2023/12/07 04:45:53;;;;;;;1.70;1.10;;;-6.90;99.90;;;;;;1930236;73;25914;-89
2023/12/07 04:51:21;;;;;;;2.07;1.27;;;-6.90;99.90;;;;;;1972894;71;27041;-89
2023/12/07 04:57:18;;;;;;;1.87;1.27;;;-6.90;99.90;;;;;;1964603;72;27436;-89
2023/12/07 05:18:06;;;;;;;1.83;1.37;;;-6.80;99.90;;;;;;1952825;72;26788;-89
2023/12/07 05:20:55;;;;;;;2.73;1.30;;;-6.70;99.90;;;;;;1902486;75;25899;-89
2023/12/07 05:23:49;;;;;;;2.60;0.83;;;-6.80;99.90;;;;;;1899150;75;25903;-89
2023/12/07 05:26:39;;;;;;;1.50;1.00;;;-6.70;99.90;;;;;;1891441;73;25877;-89
2023/12/07 05:29:29;;;;;;;1.53;1.30;;;-6.70;99.90;;;;;;1898649;75;25245;-89
2023/12/07 05:32:18;;;;;;;1.97;1.17;;;-6.70;99.90;;;;;;1911255;75;25894;-89
2023/12/07 05:35:09;;;;;;;1.10;0.97;;;-6.70;99.90;;;;;;1904521;75;26022;-89
2023/12/07 06:05:00;;;;;;;4.73;2.23;;;-6.70;99.90;;;;;;1933267;72;26147;-89
2023/12/07 07:16:59;;;;;;;1.90;1.50;;;-6.10;99.90;;;;;;1851828;77;26527;-89
2023/12/07 07:20:17;;;;;;;1.60;0.87;;;-5.80;99.90;;;;;;1803215;79;25203;-89
2023/12/07 07:23:07;;;;;;;0.57;0.57;;;-5.80;99.90;;;;;;1813426;79;25259;-89
2023/12/07 07:26:16;;;;;;;1.80;0.93;;;-5.90;99.90;;;;;;1812126;79;25255;-90
2023/12/07 07:29:06;;;;;;;0.70;0.70;;;-5.80;99.90;;;;;;1820383;78;25656;-89
2023/12/07 07:32:03;;;;;;;5.50;1.40;;;-5.80;99.90;;;;;;1806169;79;25711;-89
2023/12/07 07:34:52;;;;;;;1.00;0.90;;;-5.80;99.90;;;;;;1801573;79;25421;-90
2023/12/07 07:37:48;;;;;;;1.30;0.70;;;-5.80;99.90;;;;;;1804260;78;25286;-89
2023/12/07 07:43:35;;;;;;;2.07;1.13;;;-5.70;99.90;;;;;;1957730;72;28239;-89
2023/12/07 07:46:23;;;;;;;2.27;1.30;;;-5.80;99.90;;;;;;1887338;75;25386;-89
2023/12/07 07:49:12;;;;;;;1.80;1.13;;;-5.80;99.90;;;;;;1921688;73;25294;-89
2023/12/07 07:52:00;;;;;;;2.30;0.80;;;-5.70;99.90;;;;;;1924556;73;25279;-90
2023/12/07 07:57:43;;;;;;;2.20;1.33;;;-5.70;99.90;;;;;;1942863;72;26589;-89
2023/12/07 08:00:34;;;;;;;1.40;1.30;;;-5.70;99.90;;;;;;1919950;73;25806;-89
2023/12/07 08:03:23;;;;;;;2.23;1.63;;;-5.70;99.90;;;;;;1938622;73;25678;-89
2023/12/07 08:06:12;;;;;;;9.67;2.90;;;-5.60;99.90;;;;;;1931058;73;25229;-89
2023/12/07 08:09:03;;;;;;;5.70;2.57;;;-5.70;99.90;;;;;;1951094;72;25664;-89
2023/12/07 08:11:52;;;;;;;1.13;1.07;;;-5.60;99.90;;;;;;1929001;73;25298;-89
2023/12/07 08:18:03;;;;;;;0.87;0.87;;;-5.50;99.90;;;;;;1959956;72;27071;-89
2023/12/07 09:11:49;;;;;;;2.40;1.50;;;-5.00;99.90;;;;;;1984889;71;26849;-89
2023/12/07 09:15:07;;;;;;;1.53;1.43;;;-5.00;99.90;;;;;;2031609;70;25305;-89
2023/12/07 09:18:35;;;;;;;2.87;1.80;;;-5.00;99.90;;;;;;2031259;70;25249;-89
2023/12/07 09:21:25;;;;;;;2.07;1.30;;;-5.00;99.90;;;;;;1998560;69;25139;-90
2023/12/07 09:24:46;;;;;;;2.63;1.50;;;-5.00;99.90;;;;;;2006648;69;25611;-89
2023/12/07 09:28:18;;;;;;;2.50;1.20;;;-5.00;99.90;;;;;;2020742;69;25247;-90
2023/12/07 09:31:09;;;;;;;1.63;1.40;;;-4.90;99.90;;;;;;2011903;70;25942;-90
2023/12/07 09:34:27;;;;;;;3.27;2.10;;;-4.90;99.90;;;;;;2015016;70;25201;-90
2023/12/07 10:06:16;;;;;;;1.33;1.23;;;-4.70;99.90;;;;;;1909963;70;25336;-88
2023/12/07 10:09:06;;;;;;;2.47;1.10;;;-4.60;99.90;;;;;;1868661;75;25257;-88
2023/12/07 10:24:28;;;;;;;2.87;1.63;;;-4.60;99.90;;;;;;1883901;75;28373;-89
2023/12/07 10:30:28;;;;;;;7.07;3.43;;;-4.50;99.90;;;;;;1861644;75;25777;-90
2023/12/07 10:33:21;;;;;;;1.07;0.90;;;-4.40;99.90;;;;;;1879441;75;25801;-90
2023/12/07 10:36:13;;;;;;;1.13;1.03;;;-4.40;99.90;;;;;;1868591;77;25303;-90
2023/12/07 10:42:36;;;;;;;3.60;1.83;;;-4.40;99.90;;;;;;1836860;75;25261;-90
2023/12/07 10:45:27;;;;;;;1.73;1.43;;;-4.40;99.90;;;;;;1862788;75;25428;-90
2023/12/07 10:48:31;;;;;;;4.90;2.53;;;-4.40;99.90;;;;;;1883778;75;25422;-90
2023/12/07 11:26:45;;;;;;;4.73;1.70;;;-3.90;99.90;;;;;;1929423;71;27152;-90
2023/12/07 11:32:25;;;;;;;3.67;1.90;;;-4.00;99.90;;;;;;1956571;72;27357;-90
2023/12/07 11:38:54;;;;;;;3.47;1.60;;;-3.80;99.90;;;;;;1917486;73;25838;-90
2023/12/07 11:41:50;;;;;;;2.93;1.90;;;-3.80;99.90;;;;;;1935180;73;25688;-90
2023/12/07 11:44:41;;;;;;;3.07;2.10;;;-3.80;99.90;;;;;;1938765;73;25269;-90
2023/12/07 12:16:42;;;;;;;4.37;1.90;;;-3.70;99.90;;;;;;2028802;70;25302;-89
2023/12/07 12:20:18;;;;;;;2.63;1.73;;;-3.60;99.90;;;;;;2028339;69;25227;-88
2023/12/07 12:26:42;;;;;;;1.70;1.23;;;-3.50;99.90;;;;;;2032745;69;25203;-89
2023/12/07 12:29:53;;;;;;;1.93;1.50;;;-3.60;99.90;;;;;;2024879;69;25235;-91
2023/12/07 12:32:45;;;;;;;2.57;1.57;;;-3.70;99.90;;;;;;2019990;70;25325;-89
2023/12/07 12:36:33;;;;;;;4.03;2.10;;;-3.70;99.90;;;;;;2015651;69;25350;-88
2023/12/07 12:39:47;;;;;;;4.00;1.87;;;-3.70;99.90;;;;;;2026747;69;25188;-89
2023/12/07 12:42:41;;;;;;;3.20;1.63;;;-3.60;99.90;;;;;;2034576;69;25249;-89
2023/12/07 12:45:33;;;;;;;3.40;2.07;;;-3.60;99.90;;;;;;2017488;70;25292;-89
2023/12/07 12:48:33;;;;;;;4.20;1.57;;;-3.60;99.90;;;;;;2009598;70;25146;-89
2023/12/07 12:51:22;;;;;;;3.53;2.57;;;-3.60;99.90;;;;;;1993084;72;25142;-89
2023/12/07 12:54:13;;;;;;;3.43;2.13;;;-3.60;99.90;;;;;;1995358;70;25280;-89
2023/12/07 12:57:08;;;;;;;6.17;2.33;;;-3.60;99.90;;;;;;1986268;70;25262;-89
2023/12/07 13:00:09;;;;;;;4.40;2.30;;;-3.60;99.90;;;;;;1975723;70;25604;-89
2023/12/07 13:02:58;;;;;;;8.80;4.07;;;-3.60;99.90;;;;;;1984384;70;25130;-89
2023/12/07 13:13:05;;;;;;;9.47;4.60;;;-3.50;99.90;;;;;;1831998;76;25859;-90
2023/12/07 13:15:54;;;;;;;7.07;3.20;;;-3.50;99.90;;;;;;1850156;76;25754;-90
2023/12/07 13:18:43;;;;;;;1.30;1.20;;;-3.50;99.90;;;;;;1857273;76;25262;-90
2023/12/07 13:25:09;;;;;;;7.37;2.63;;;-3.50;99.90;;;;;;1945422;72;27788;-93
2023/12/07 13:28:10;;;;;;;3.73;2.47;;;-3.50;99.90;;;;;;1925279;73;25251;-92
2023/12/07 13:31:03;;;;;;;6.27;2.67;;;-3.50;99.90;;;;;;1917875;73;25189;-93
2023/12/07 13:33:55;;;;;;;5.03;1.93;;;-3.50;99.90;;;;;;1904350;73;25492;-93
2023/12/07 13:36:48;;;;;;;7.63;2.93;;;-3.50;99.90;;;;;;1939482;73;25290;-92
2023/12/07 13:39:38;;;;;;;6.47;3.43;;;-3.40;99.90;;;;;;1900445;73;25205;-92
2023/12/07 13:42:32;;;;;;;3.43;2.33;;;-3.50;99.90;;;;;;1949178;72;25198;-92
2023/12/07 13:49:04;;;;;;;5.20;3.33;;;-3.50;99.90;;;;;;1906023;74;25226;-93
2023/12/07 13:51:55;;;;;;;4.50;2.37;;;-3.50;99.90;;;;;;1913893;73;25282;-92
2023/12/07 13:54:45;;;;;;;9.90;3.53;;;-3.50;99.90;;;;;;1869732;75;25231;-92
2023/12/07 13:57:39;;;;;;;6.07;2.30;;;-3.50;99.90;;;;;;1927330;73;25662;-92
2023/12/07 14:00:31;;;;;;;6.80;3.30;;;-3.40;99.90;;;;;;1937287;74;25272;-92
2023/12/07 14:20:20;;;;;;;5.97;3.27;;;-3.40;99.90;;;;;;1911631;73;28776;-91
2023/12/07 14:41:32;;;;;;;5.83;2.47;;;-3.30;99.90;;;;;;1921548;72;25170;-91
2023/12/07 14:44:55;;;;;;;8.93;4.13;;;-3.40;99.90;;;;;;1909838;72;25263;-91
2023/12/07 14:48:11;;;;;;;6.80;2.60;;;-3.40;99.90;;;;;;1899674;74;25303;-91
2023/12/07 14:51:27;;;;;;;6.27;2.97;;;-3.50;99.90;;;;;;1956091;72;25240;-91
2023/12/07 15:23:00;;;;;;;2.87;1.63;;;-3.50;99.90;;;;;;1928294;73;26473;-90
2023/12/07 15:26:24;;;;;;;44.50;11.50;;;-3.50;99.90;;;;;;1948673;73;25261;-90
2023/12/07 16:19:23;;;;;;;4.77;3.00;;;-3.50;99.90;;;;;;1913683;74;25214;-91
2023/12/07 16:43:30;;;;;;;13.43;6.03;;;-3.90;99.90;;;;;;1962981;71;27055;-90
2023/12/07 16:46:22;;;;;;;26.43;8.97;;;-4.00;99.90;;;;;;1941609;73;25718;-90
2023/12/07 16:50:25;;;;;;;7.87;3.20;;;-4.10;99.90;;;;;;1930602;73;25860;-89
2023/12/07 18:18:41;;;;;;;7.43;4.57;;;-3.70;99.90;;;;;;1843526;74;27269;-90
2023/12/07 18:24:29;;;;;;;7.13;4.17;;;-3.60;99.90;;;;;;1952031;72;27977;-92
2023/12/07 18:27:24;;;;;;;9.30;5.03;;;-3.60;99.90;;;;;;1929447;73;25260;-92
2023/12/07 18:30:28;;;;;;;9.37;5.17;;;-3.60;99.90;;;;;;1919771;73;25149;-91
2023/12/07 18:33:21;;;;;;;8.77;4.27;;;-3.70;99.90;;;;;;1966574;72;25207;-92
2023/12/07 18:36:15;;;;;;;10.63;6.23;;;-3.70;99.90;;;;;;1909536;73;25201;-91
2023/12/07 18:39:07;;;;;;;19.97;8.07;;;-3.60;99.90;;;;;;1935091;73;25266;-92
2023/12/07 19:28:44;;;;;;;10.33;4.20;;;-3.40;99.90;;;;;;2022949;69;26462;-92
2023/12/07 19:48:38;;;;;;;16.53;7.87;;;-3.40;99.90;;;;;;1965954;72;27456;-90
2023/12/07 19:52:20;;;;;;;8.23;4.37;;;-3.40;99.90;;;;;;1916270;73;25281;-90
2023/12/07 20:53:02;;;;;;;5.33;2.97;;;-3.60;99.90;;;;;;1940985;72;27052;-90
2023/12/07 21:31:04;;;;;;;8.73;3.63;;;-3.40;99.90;;;;;;2007029;70;25867;-90
2023/12/07 22:04:54;;;;;;;6.10;3.20;;;-3.50;99.90;;;;;;1935388;72;27050;-90
2023/12/07 22:07:43;;;;;;;8.87;3.60;;;-3.50;99.90;;;;;;1906076;74;25822;-90
2023/12/07 22:10:37;;;;;;;5.33;3.03;;;-3.60;99.90;;;;;;1896594;74;25259;-90
2023/12/07 22:13:30;;;;;;;9.27;3.17;;;-3.70;99.90;;;;;;1904062;73;25734;-90
2023/12/07 22:19:19;;;;;;;9.03;4.13;;;-3.80;99.90;;;;;;2007299;71;27031;-90
2023/12/07 22:22:19;;;;;;;4.97;2.57;;;-3.70;99.90;;;;;;1934892;73;25704;-90
2023/12/07 22:25:13;;;;;;;6.13;3.63;;;-3.70;99.90;;;;;;1937978;73;25684;-90
2023/12/07 22:28:29;;;;;;;8.67;4.00;;;-3.70;99.90;;;;;;1930498;73;25270;-90
2023/12/07 22:48:22;;;;;;;5.10;2.87;;;-4.00;99.90;;;;;;1995618;71;26962;-90
2023/12/07 22:51:14;;;;;;;5.67;3.23;;;-4.10;99.90;;;;;;1958713;72;25680;-90
2023/12/07 23:42:42;;;;;;;6.67;2.70;;;-4.30;99.90;;;;;;1952749;72;27681;-91
2023/12/07 23:45:34;;;;;;;10.03;2.90;;;-4.40;99.90;;;;;;1915212;75;25279;-92
